Surabaya Perak, Indonesia

07:56 PM WIB on Juli 30, 2016 (GMT +0700)
Juanda | | Change Station

Elev 10 ft 7.38 °S, 112.79 °E | Updated 26 minutes ago

Partly Cloudy
Mendung Sebagian
82 °F
Feels Like 88 °F
N
13
Angin Variable Angin from Arah Timur

Siang Ini
High -- | Low -- °F
--% Chance of Precip.
Yesterday
High -- | Low -- °F
Precip. -- Inch
Tekanan 29.83 Inch
Jarak Pandang 5.0 Mil
Awan Few 2000 ft
Ideks Panas 88 °F
Titik Embun 73 °F
Kelembaban 74%
Rainfall 0.00 Inch
Snow Depth Not available.
5:41 AM 5:29 PM
Waning Crescent, 13% visible
METAR WARR 301230Z 10011KT 8000 FEW020 28/23 Q1010 NOSIG
Tekanan 29.83 Inch
Jarak Pandang 5.0 Mil
Awan Few 2000 ft
Ideks Panas 88 °F
Titik Embun 73 °F
Kelembaban 74%
Rainfall 0.00 Inch
Snow Depth Not available.
5:41 AM 5:29 PM
Waning Crescent, 13% visible
METAR WARR 301230Z 10011KT 8000 FEW020 28/23 Q1010 NOSIG

10-Day Weather Forecast

No radar image for this location.
×

Almanac

Astronomi

Jul. 30, 2016 Rise Set
Actual Time
Civil Twilight
Nautical Twilight
Astronomical Twilight
Moon
Length Of Visible Light
Lama Satu Hari
Tomorrow will be .
, % of the Moon is Illuminated

Today's Extremes

Country Highs Country Lows

Community

WunderPhotos

Upload Photos

1,928,545 photos uploaded!

WunderBlog® & News

Nearby

Air Quality

  Air Quality AQ Index Pollutant
Not available.

Snow Depth

Station Depth Elevation

Earthquake Activity

City Distance Mag. Time & Date
Minimum magnitude displayed is 2.5.

Coastal Water Temperatures

Lokasi Temperatur

Stations

Nearby Weather Stations

Station Location Temp Angin Dingin Titik Embun Kelembaban Angin Precip. Elev Telah Diperbaharui Type